createdAt,value
2022-11-23T00:02:04.677Z,13.30
2022-11-23T00:04:34.990Z,14.00
2022-11-23T00:07:03.433Z,15.82
2022-11-23T00:13:19.176Z,13.18
2022-11-23T00:15:47.565Z,13.70
2022-11-23T00:18:16.774Z,12.32
2022-11-23T00:20:47.011Z,15.00
2022-11-23T00:23:18.096Z,13.98
2022-11-23T00:25:47.423Z,13.88
2022-11-23T00:28:16.710Z,13.55
2022-11-23T00:30:51.286Z,13.93
2022-11-23T00:33:19.861Z,12.00
2022-11-23T00:35:49.947Z,13.65
2022-11-23T00:38:20.389Z,15.18
2022-11-23T00:40:50.687Z,14.60
2022-11-23T00:43:19.554Z,15.52
2022-11-23T00:45:51.342Z,15.57
2022-11-23T00:48:19.639Z,13.18
2022-11-23T00:50:49.990Z,12.80
2022-11-23T00:53:18.781Z,12.88
2022-11-23T00:55:53.323Z,13.35
2022-11-23T00:58:25.726Z,12.10
2022-11-23T01:01:02.822Z,13.60
2022-11-23T01:03:32.407Z,12.55
2022-11-23T01:06:07.875Z,12.55
2022-11-23T01:08:37.509Z,11.00
2022-11-23T01:11:07.912Z,12.27
2022-11-23T01:13:38.106Z,12.00
2022-11-23T01:16:09.352Z,14.30
2022-11-23T01:18:37.856Z,14.43
2022-11-23T01:21:07.809Z,14.90
2022-11-23T01:23:37.281Z,13.57
2022-11-23T01:26:07.585Z,13.98
2022-11-23T01:28:37.869Z,13.50
2022-11-23T01:31:08.844Z,16.02
2022-11-23T01:33:37.951Z,14.60
2022-11-23T01:36:16.970Z,15.30
2022-11-23T01:38:46.740Z,16.48
2022-11-23T01:41:17.342Z,15.00
2022-11-23T01:43:46.809Z,12.10
2022-11-23T01:46:15.185Z,13.70
2022-11-23T01:48:48.471Z,14.18
2022-11-23T01:51:22.613Z,13.13
2022-11-23T01:53:55.157Z,12.20
2022-11-23T01:56:31.828Z,10.95
2022-11-23T01:59:02.189Z,12.05
2022-11-23T02:01:31.876Z,12.05
2022-11-23T02:04:02.942Z,11.68
2022-11-23T02:06:34.042Z,12.63
2022-11-23T02:09:04.115Z,11.77
2022-11-23T02:11:32.293Z,12.18
2022-11-23T02:14:00.684Z,10.70
2022-11-23T02:16:31.943Z,11.60
2022-11-23T02:19:00.780Z,12.00
2022-11-23T02:21:29.261Z,13.10
2022-11-23T02:24:06.114Z,11.80
2022-11-23T02:26:39.191Z,11.70
2022-11-23T02:29:12.788Z,12.80
2022-11-23T02:31:40.914Z,11.45
2022-11-23T02:34:09.005Z,13.40
2022-11-23T02:36:40.945Z,12.40
2022-11-23T02:39:12.585Z,11.68
2022-11-23T02:41:44.683Z,10.73
2022-11-23T02:44:33.904Z,15.32
2022-11-23T02:47:02.261Z,13.13
2022-11-23T02:49:30.798Z,11.57
2022-11-23T02:51:59.107Z,13.02
2022-11-23T02:54:27.963Z,10.75
2022-11-23T02:56:57.487Z,12.23
2022-11-23T02:59:25.724Z,10.80
2022-11-23T03:01:54.875Z,11.55
2022-11-23T03:04:27.546Z,10.75
2022-11-23T03:06:56.300Z,13.27
2022-11-23T03:09:26.338Z,12.20
2022-11-23T03:11:54.986Z,13.45
2022-11-23T03:14:25.889Z,12.70
2022-11-23T03:16:59.495Z,12.00
2022-11-23T03:19:28.875Z,12.40
2022-11-23T03:21:57.501Z,13.63
2022-11-23T03:24:25.571Z,13.15
2022-11-23T03:26:55.476Z,13.52
2022-11-23T03:29:26.589Z,14.38
2022-11-23T03:31:56.578Z,14.32
2022-11-23T03:34:25.934Z,11.15
2022-11-23T03:36:54.011Z,11.02
2022-11-23T03:39:22.195Z,12.23
2022-11-23T03:41:50.279Z,12.73
2022-11-23T03:44:20.359Z,12.05
2022-11-23T03:46:51.509Z,13.25
2022-11-23T03:49:19.513Z,12.73
2022-11-23T03:51:47.522Z,12.80
2022-11-23T03:54:15.889Z,12.35
2022-11-23T03:56:44.169Z,12.75
2022-11-23T03:59:12.459Z,12.18
2022-11-23T04:01:40.754Z,12.43
2022-11-23T04:04:16.061Z,9.82
2022-11-23T04:07:13.636Z,13.38
2022-11-23T04:09:48.148Z,13.40
2022-11-23T04:12:38.871Z,12.15
2022-11-23T04:15:09.415Z,15.25
2022-11-23T04:17:37.904Z,13.55
2022-11-23T04:20:09.341Z,13.30
2022-11-23T04:22:38.074Z,14.98
2022-11-23T04:25:06.906Z,13.32
2022-11-23T04:27:35.030Z,12.68
2022-11-23T04:30:04.758Z,14.13
2022-11-23T04:32:33.518Z,12.90
2022-11-23T04:35:01.905Z,13.35
2022-11-23T04:37:31.393Z,12.88
2022-11-23T04:39:59.445Z,12.95
2022-11-23T04:42:38.662Z,15.10
2022-11-23T04:45:08.450Z,11.18
2022-11-23T04:47:37.309Z,11.88
2022-11-23T04:50:10.718Z,11.77
2022-11-23T04:52:40.394Z,14.15
2022-11-23T04:55:14.407Z,12.60
2022-11-23T04:57:50.662Z,14.70
2022-11-23T05:00:19.270Z,25.48
2022-11-23T05:02:48.967Z,15.07
2022-11-23T05:05:26.621Z,22.35
2022-11-23T05:07:58.874Z,18.92
2022-11-23T05:10:37.739Z,19.33
2022-11-23T05:13:06.648Z,17.98
2022-11-23T05:15:34.617Z,15.13
2022-11-23T05:18:03.615Z,13.63
2022-11-23T05:20:32.413Z,11.05
2022-11-23T05:23:01.992Z,12.10
2022-11-23T05:25:31.625Z,13.75
2022-11-23T05:28:16.676Z,14.38
2022-11-23T05:30:51.901Z,13.80
2022-11-23T05:33:20.233Z,13.27
2022-11-23T05:35:49.493Z,12.38
2022-11-23T05:38:21.309Z,13.52
2022-11-23T05:40:49.436Z,12.75
2022-11-23T05:43:17.729Z,15.00
2022-11-23T05:45:45.924Z,15.63
2022-11-23T05:48:15.782Z,15.80
2022-11-23T05:50:55.443Z,17.88
2022-11-23T05:53:35.990Z,15.35
2022-11-23T05:56:30.070Z,14.45
2022-11-23T05:59:16.854Z,15.13
2022-11-23T06:01:49.899Z,14.40
2022-11-23T06:04:25.252Z,16.10
2022-11-23T06:06:54.673Z,15.48
2022-11-23T06:09:24.099Z,15.35
2022-11-23T06:11:54.649Z,15.70
2022-11-23T06:14:23.083Z,13.82
2022-11-23T06:16:52.409Z,16.60
2022-11-23T06:19:33.801Z,16.63
2022-11-23T06:22:03.112Z,14.15
2022-11-23T06:24:36.438Z,14.30
2022-11-23T06:27:22.973Z,15.98
2022-11-23T06:29:52.384Z,14.60
2022-11-23T06:32:22.032Z,16.40
2022-11-23T06:34:50.099Z,14.15
2022-11-23T06:37:18.979Z,14.27
2022-11-23T06:39:54.378Z,16.30
2022-11-23T06:42:39.807Z,14.02
2022-11-23T06:45:18.305Z,15.00
2022-11-23T06:47:47.952Z,11.80
2022-11-23T06:50:17.139Z,12.50
2022-11-23T06:52:47.294Z,12.70
2022-11-23T06:55:16.980Z,15.60
2022-11-23T06:57:45.144Z,14.43
2022-11-23T07:00:15.621Z,14.40
2022-11-23T07:02:45.270Z,13.57
2022-11-23T07:05:16.499Z,15.77
2022-11-23T07:07:44.982Z,14.20
2022-11-23T07:10:21.874Z,17.35
2022-11-23T07:12:53.805Z,14.18
2022-11-23T07:15:23.466Z,17.33
2022-11-23T07:17:53.171Z,17.55
2022-11-23T07:20:23.354Z,14.35
2022-11-23T07:23:01.498Z,15.90
2022-11-23T07:25:31.570Z,15.63
2022-11-23T07:28:02.730Z,15.73
2022-11-23T07:30:32.643Z,15.55
2022-11-23T07:33:02.240Z,15.77
2022-11-23T07:35:31.779Z,14.63
2022-11-23T07:38:00.654Z,15.27
2022-11-23T07:40:29.393Z,13.88
2022-11-23T07:43:02.269Z,14.82
2022-11-23T07:45:31.706Z,17.13
2022-11-23T07:48:03.217Z,14.05
2022-11-23T07:50:31.653Z,16.77
2022-11-23T07:53:00.127Z,14.30
2022-11-23T07:55:28.494Z,16.20
2022-11-23T07:57:56.549Z,16.98
2022-11-23T08:00:28.922Z,14.02
2022-11-23T08:03:26.038Z,16.30
2022-11-23T08:05:47.322Z,16.13
2022-11-23T08:08:15.326Z,16.92
2022-11-23T08:10:46.265Z,16.30
2022-11-23T08:13:19.057Z,16.05
2022-11-23T08:15:53.956Z,15.70
2022-11-23T08:18:24.508Z,15.45
2022-11-23T08:20:52.653Z,15.55
2022-11-23T08:23:21.501Z,15.18
2022-11-23T08:25:49.542Z,16.20
2022-11-23T08:28:18.035Z,17.02
2022-11-23T08:30:46.260Z,18.15
2022-11-23T08:33:16.976Z,17.80
2022-11-23T08:35:45.332Z,15.98
2022-11-23T08:38:13.604Z,15.95
2022-11-23T08:40:41.917Z,14.27
2022-11-23T08:43:09.947Z,14.52
2022-11-23T08:45:38.267Z,15.38
2022-11-23T08:48:07.510Z,14.63
2022-11-23T08:50:37.261Z,14.90
2022-11-23T08:53:05.763Z,16.13
2022-11-23T08:55:34.086Z,17.35
2022-11-23T08:58:02.428Z,14.52
2022-11-23T09:00:31.080Z,14.40
2022-11-23T09:03:00.513Z,14.45
2022-11-23T09:05:29.571Z,12.68
2022-11-23T09:08:01.078Z,13.35
2022-11-23T09:10:29.747Z,13.55
2022-11-23T09:12:57.817Z,13.52
2022-11-23T09:15:26.161Z,13.77
2022-11-23T09:17:54.411Z,11.90
2022-11-23T09:20:22.519Z,9.45
2022-11-23T09:22:54.891Z,8.85
2022-11-23T09:25:25.170Z,10.65
2022-11-23T09:27:58.542Z,10.20
2022-11-23T09:30:26.813Z,10.32
2022-11-23T09:32:56.570Z,10.52
2022-11-23T09:35:25.424Z,11.23
2022-11-23T09:37:57.131Z,10.85
2022-11-23T09:40:29.865Z,10.90
2022-11-23T09:43:12.012Z,10.68
2022-11-23T09:45:47.355Z,10.40
2022-11-23T09:48:38.285Z,10.73
2022-11-23T09:51:15.813Z,10.38
2022-11-23T09:53:49.532Z,11.93
2022-11-23T09:56:23.643Z,10.10
2022-11-23T09:58:55.969Z,10.77
2022-11-23T10:01:24.535Z,10.18
2022-11-23T10:03:53.149Z,10.20
2022-11-23T10:06:24.075Z,9.10
2022-11-23T10:09:13.868Z,10.40
2022-11-23T10:12:21.007Z,10.50
2022-11-23T10:15:02.870Z,8.90
2022-11-23T10:17:51.124Z,9.07
2022-11-23T10:20:35.085Z,11.38
2022-11-23T10:23:05.538Z,8.73
2022-11-23T10:25:40.774Z,11.40
2022-11-23T10:28:14.472Z,9.98
2022-11-23T10:30:46.679Z,9.38
2022-11-23T10:33:25.023Z,9.00
2022-11-23T10:35:53.613Z,8.60
2022-11-23T10:38:23.082Z,9.88
2022-11-23T10:41:01.843Z,10.32
2022-11-23T10:43:33.652Z,10.52
2022-11-23T10:46:40.422Z,10.23
2022-11-23T10:49:18.464Z,11.77
2022-11-23T10:51:52.099Z,10.35
2022-11-23T10:54:24.712Z,9.57
2022-11-23T10:56:54.689Z,9.50
2022-11-23T10:59:33.932Z,10.35
2022-11-23T11:02:14.736Z,9.70
2022-11-23T11:04:44.857Z,9.40
2022-11-23T11:07:24.042Z,11.15
2022-11-23T11:10:05.167Z,10.57
2022-11-23T11:12:35.578Z,10.02
2022-11-23T11:15:15.819Z,9.98
2022-11-23T11:17:44.461Z,11.02
2022-11-23T11:20:34.123Z,10.57
2022-11-23T11:23:05.245Z,9.77
2022-11-23T11:25:36.210Z,10.02
2022-11-23T11:28:07.659Z,9.93
2022-11-23T11:30:47.165Z,9.20
2022-11-23T11:33:21.065Z,8.98
2022-11-23T11:35:53.657Z,9.10
2022-11-23T11:38:29.911Z,8.88
2022-11-23T11:41:01.750Z,8.38
2022-11-23T11:43:39.553Z,8.60
2022-11-23T11:46:31.290Z,9.43
2022-11-23T11:49:07.737Z,8.27
2022-11-23T11:51:41.333Z,9.77
2022-11-23T11:54:19.693Z,9.35
2022-11-23T11:56:51.085Z,9.88
2022-11-23T11:59:27.174Z,10.00
2022-11-23T12:02:01.524Z,10.90
2022-11-23T12:04:38.768Z,9.60
2022-11-23T12:07:15.449Z,10.25
2022-11-23T12:09:48.501Z,9.75
2022-11-23T12:12:19.447Z,10.45
2022-11-23T12:14:48.000Z,11.00
2022-11-23T12:18:04.816Z,9.60
2022-11-23T12:20:45.862Z,10.25
2022-11-23T12:23:26.072Z,9.65
2022-11-23T12:26:07.934Z,9.75
2022-11-23T12:28:52.394Z,10.95
2022-11-23T12:31:39.296Z,8.93
2022-11-23T12:34:38.025Z,10.27
2022-11-23T12:37:30.351Z,13.73
2022-11-23T12:40:20.748Z,9.57
2022-11-23T12:42:52.827Z,11.50
2022-11-23T12:45:54.570Z,9.10
2022-11-23T12:48:50.847Z,10.90
2022-11-23T12:51:28.074Z,10.63
2022-11-23T12:54:13.704Z,9.82
2022-11-23T12:56:57.112Z,10.25
2022-11-23T12:59:27.207Z,11.77
2022-11-23T13:02:00.278Z,11.98
2022-11-23T13:04:48.494Z,12.40
2022-11-23T13:07:57.081Z,11.32
2022-11-23T13:10:36.908Z,12.02
2022-11-23T13:13:29.050Z,11.40
2022-11-23T13:16:15.957Z,12.18
2022-11-23T13:19:02.978Z,10.45
2022-11-23T13:21:37.961Z,10.73
2022-11-23T13:24:25.163Z,11.00
2022-11-23T13:27:31.796Z,12.05
2022-11-23T13:30:11.115Z,12.65
2022-11-23T13:32:55.036Z,13.23
2022-11-23T13:35:56.084Z,12.90
2022-11-23T13:38:43.613Z,11.93
2022-11-23T13:41:57.362Z,10.52
2022-11-23T13:44:29.458Z,11.77
2022-11-23T13:47:05.510Z,12.38
2022-11-23T13:49:39.042Z,10.35
2022-11-23T13:52:28.231Z,10.40
2022-11-23T13:55:05.583Z,13.25
2022-11-23T13:57:37.871Z,11.60
2022-11-23T14:00:43.666Z,10.60
2022-11-23T14:03:51.786Z,11.55
2022-11-23T14:06:24.948Z,11.23
2022-11-23T14:09:00.347Z,11.30
2022-11-23T14:11:29.670Z,10.30
2022-11-23T14:14:01.949Z,11.15
2022-11-23T14:16:54.059Z,11.55
2022-11-23T14:19:33.820Z,13.20
2022-11-23T14:22:09.432Z,13.75
2022-11-23T14:24:53.673Z,13.27
2022-11-23T14:27:51.434Z,12.45
2022-11-23T14:30:40.071Z,10.55
2022-11-23T14:33:23.109Z,12.82
2022-11-23T14:36:04.257Z,13.15
2022-11-23T14:39:05.631Z,12.93
2022-11-23T14:41:36.398Z,13.90
2022-11-23T14:44:07.021Z,13.00
2022-11-23T14:46:35.082Z,13.93
2022-11-23T14:49:07.959Z,13.15
2022-11-23T14:51:43.164Z,13.32
2022-11-23T14:54:12.988Z,12.95
2022-11-23T14:56:45.440Z,13.20
2022-11-23T14:59:23.470Z,13.35
2022-11-23T15:01:53.420Z,12.98
2022-11-23T15:04:29.272Z,14.23
2022-11-23T15:07:05.161Z,14.05
2022-11-23T15:09:46.073Z,14.93
2022-11-23T15:12:23.485Z,15.98
2022-11-23T15:14:52.437Z,14.88
2022-11-23T15:17:22.236Z,14.65
2022-11-23T15:19:58.316Z,14.40
2022-11-23T15:22:28.994Z,14.45
2022-11-23T15:25:08.110Z,15.18
2022-11-23T15:27:41.418Z,13.75
2022-11-23T15:30:16.672Z,13.88
2022-11-23T15:32:45.010Z,12.73
2022-11-23T15:35:16.945Z,14.48
2022-11-23T15:37:48.918Z,13.95
2022-11-23T15:40:18.999Z,13.32
2022-11-23T15:42:49.741Z,12.50
2022-11-23T15:45:39.214Z,13.40
2022-11-23T15:48:14.058Z,16.13
2022-11-23T15:50:50.617Z,13.55
2022-11-23T15:53:22.170Z,22.15
2022-11-23T15:55:51.149Z,29.67
2022-11-23T15:58:20.724Z,27.30
2022-11-23T16:00:52.760Z,18.30
2022-11-23T16:03:33.833Z,15.55
2022-11-23T16:06:28.544Z,16.67
2022-11-23T16:08:57.867Z,13.10
2022-11-23T16:11:32.575Z,14.68
2022-11-23T16:14:19.132Z,14.70
2022-11-23T16:16:49.791Z,14.93
2022-11-23T16:19:24.136Z,13.85
2022-11-23T16:22:01.747Z,15.38
2022-11-23T16:24:35.394Z,15.95
2022-11-23T16:27:14.071Z,19.80
2022-11-23T16:29:42.566Z,18.27
2022-11-23T16:32:23.734Z,21.80
2022-11-23T16:34:52.492Z,18.25
2022-11-23T16:37:21.151Z,20.75
2022-11-23T16:39:50.559Z,16.77
2022-11-23T16:42:19.208Z,17.33
2022-11-23T16:44:47.585Z,19.10
2022-11-23T16:47:24.510Z,17.80
2022-11-23T16:49:53.506Z,18.65
2022-11-23T16:52:22.798Z,18.30
2022-11-23T16:54:53.619Z,20.60
2022-11-23T16:57:28.869Z,20.90
2022-11-23T16:59:57.880Z,20.40
2022-11-23T17:03:34.685Z,19.17
2022-11-23T17:06:03.122Z,18.35
2022-11-23T17:08:31.420Z,17.20
2022-11-23T17:11:00.883Z,16.17
2022-11-23T17:13:30.487Z,19.38
2022-11-23T17:15:58.513Z,17.88
2022-11-23T17:18:26.550Z,20.33
2022-11-23T17:20:55.987Z,18.27
2022-11-23T17:23:24.028Z,19.13
2022-11-23T17:25:52.287Z,18.40
2022-11-23T17:28:22.346Z,19.00
2022-11-23T17:30:51.045Z,16.52
2022-11-23T17:33:19.166Z,19.85
2022-11-23T17:35:47.907Z,17.15
2022-11-23T17:38:18.260Z,16.52
2022-11-23T17:40:46.755Z,17.63
2022-11-23T17:43:15.560Z,16.98
2022-11-23T17:45:46.053Z,18.27
2022-11-23T17:48:16.973Z,18.90
2022-11-23T17:50:47.377Z,24.38
2022-11-23T17:53:16.740Z,25.75
2022-11-23T17:55:46.245Z,22.67
2022-11-23T17:58:14.407Z,21.92
2022-11-23T18:00:44.316Z,19.23
2022-11-23T18:03:12.459Z,17.73
2022-11-23T18:05:40.604Z,17.65
2022-11-23T18:08:09.281Z,20.08
2022-11-23T18:10:37.377Z,18.63
2022-11-23T18:13:05.568Z,18.42
2022-11-23T18:15:33.786Z,21.05
2022-11-23T18:18:04.995Z,20.08
2022-11-23T18:20:33.253Z,18.67
2022-11-23T18:23:01.345Z,20.08
2022-11-23T18:25:29.628Z,22.77
2022-11-23T18:27:57.626Z,26.23
2022-11-23T18:30:25.727Z,24.20
2022-11-23T18:32:53.769Z,22.98
2022-11-23T18:35:23.392Z,22.55
2022-11-23T18:37:51.615Z,22.73
2022-11-23T18:40:19.654Z,23.73
2022-11-23T18:42:48.035Z,22.17
2022-11-23T18:45:16.018Z,23.52
2022-11-23T18:47:44.085Z,26.52
2022-11-23T18:50:12.127Z,23.83
2022-11-23T18:52:41.693Z,23.90
2022-11-23T18:55:09.873Z,23.15
2022-11-23T18:57:37.859Z,23.67
2022-11-23T19:00:08.117Z,26.13
2022-11-23T19:02:37.527Z,23.48
2022-11-23T19:05:06.105Z,22.30
2022-11-23T19:07:34.212Z,23.88
2022-11-23T19:10:03.841Z,24.83
2022-11-23T19:12:32.096Z,24.08
2022-11-23T19:15:00.178Z,24.65
2022-11-23T19:17:28.363Z,23.73
2022-11-23T19:19:56.765Z,23.83
2022-11-23T19:22:25.128Z,23.88
2022-11-23T19:24:53.256Z,24.67
2022-11-23T19:27:22.922Z,23.35
2022-11-23T19:29:51.930Z,25.40
2022-11-23T19:32:20.430Z,25.80
2022-11-23T19:34:48.486Z,23.30
2022-11-23T19:37:16.622Z,23.08
2022-11-23T19:39:44.795Z,25.13
2022-11-23T19:42:12.788Z,23.35
2022-11-23T19:44:42.341Z,23.75
2022-11-23T19:47:16.376Z,24.52
2022-11-23T19:49:47.137Z,22.05
2022-11-23T19:52:15.301Z,22.35
2022-11-23T19:54:43.365Z,24.42
2022-11-23T19:57:11.362Z,22.65
2022-11-23T19:59:39.839Z,21.15
2022-11-23T20:02:11.887Z,19.23
2022-11-23T20:04:40.089Z,20.10
2022-11-23T20:07:08.117Z,19.80
2022-11-23T20:09:36.455Z,22.48
2022-11-23T20:12:04.847Z,20.00
2022-11-23T20:14:33.014Z,21.92
2022-11-23T20:17:01.088Z,21.92
2022-11-23T20:19:30.958Z,21.17
2022-11-23T20:21:59.164Z,21.33
2022-11-23T20:24:27.179Z,21.52
2022-11-23T20:26:55.468Z,22.38
2022-11-23T20:29:23.552Z,20.25
2022-11-23T20:31:52.147Z,19.98
2022-11-23T20:34:24.028Z,21.38
2022-11-23T20:36:55.658Z,19.02
2022-11-23T20:39:23.716Z,20.52
2022-11-23T20:41:51.785Z,18.58
2022-11-23T20:44:20.970Z,19.35
2022-11-23T20:47:04.474Z,19.63
2022-11-23T20:49:33.321Z,19.58
2022-11-23T20:52:03.046Z,19.48
2022-11-23T20:54:32.644Z,20.58
2022-11-23T20:57:00.905Z,19.63
2022-11-23T20:59:29.449Z,17.15
2022-11-23T21:01:57.751Z,17.90
2022-11-23T21:04:26.284Z,18.80
2022-11-23T21:06:54.660Z,19.42
2022-11-23T21:09:24.214Z,17.85
2022-11-23T21:12:09.872Z,20.60
2022-11-23T21:14:38.134Z,20.98
2022-11-23T21:17:06.685Z,19.38
2022-11-23T21:19:36.645Z,20.63
2022-11-23T21:22:07.635Z,19.63
2022-11-23T21:24:37.873Z,17.50
2022-11-23T21:27:07.871Z,17.58
2022-11-23T21:29:35.820Z,19.83
2022-11-23T21:32:04.060Z,19.02
2022-11-23T21:34:32.618Z,17.55
2022-11-23T21:37:01.902Z,17.08
2022-11-23T21:39:31.981Z,15.93
2022-11-23T21:42:01.698Z,15.65
2022-11-23T21:44:29.730Z,17.27
2022-11-23T21:46:57.936Z,22.20
2022-11-23T21:49:28.664Z,19.30
2022-11-23T21:51:57.064Z,18.50
2022-11-23T21:54:25.124Z,17.77
2022-11-23T21:56:53.130Z,18.00
2022-11-23T21:59:23.362Z,14.50
2022-11-23T22:01:51.389Z,16.55
2022-11-23T22:04:19.590Z,15.88
2022-11-23T22:06:47.583Z,14.65
2022-11-23T22:09:15.812Z,16.67
2022-11-23T22:11:45.212Z,16.17
2022-11-23T22:14:14.275Z,17.65
2022-11-23T22:16:46.123Z,18.67
2022-11-23T22:19:16.408Z,19.75
2022-11-23T22:21:45.683Z,21.80
2022-11-23T22:24:15.267Z,22.17
2022-11-23T22:26:43.990Z,22.20
2022-11-23T22:29:12.547Z,17.30
2022-11-23T22:31:41.100Z,20.60
2022-11-23T22:34:12.993Z,17.33
2022-11-23T22:36:41.447Z,26.15
2022-11-23T22:39:10.307Z,20.90
2022-11-23T22:41:39.194Z,18.08
2022-11-23T22:44:09.537Z,17.65
2022-11-23T22:46:38.729Z,17.73
2022-11-23T22:49:07.380Z,20.35
2022-11-23T22:51:37.013Z,17.58
2022-11-23T22:54:05.410Z,19.63
2022-11-23T22:56:33.945Z,20.98
2022-11-23T22:59:01.950Z,20.08
2022-11-23T23:01:31.669Z,22.55
2022-11-23T23:04:02.108Z,22.40
2022-11-23T23:06:33.722Z,19.20
2022-11-23T23:09:05.615Z,19.30
2022-11-23T23:11:35.464Z,18.05
2022-11-23T23:14:03.833Z,19.75
2022-11-23T23:16:31.971Z,17.58
2022-11-23T23:19:00.540Z,17.42
2022-11-23T23:21:29.904Z,18.65
2022-11-23T23:24:00.034Z,19.30
2022-11-23T23:26:30.429Z,19.25
2022-11-23T23:28:59.790Z,16.40
2022-11-23T23:31:29.080Z,18.60
2022-11-23T23:33:57.188Z,18.90
2022-11-23T23:36:25.701Z,16.67
2022-11-23T23:38:53.834Z,15.70
2022-11-23T23:41:22.211Z,18.25
2022-11-23T23:43:51.864Z,17.50
2022-11-23T23:46:20.047Z,17.55
2022-11-23T23:48:48.093Z,14.85
2022-11-23T23:51:18.490Z,16.73
2022-11-23T23:53:47.095Z,16.83
2022-11-23T23:56:17.218Z,14.80
2022-11-23T23:58:46.234Z,14.73
